Weather observations for the past three days for
Beaumont Municipal Airport
Metric (Imperial)
Date Time (cdt) Wind (kph) Vis. (km) Weather Sky Cond. Temperature (ºC) Relative Humidity Wind Chill (°C) Heat Index (°C) Pressure Precipitation (cm)
Air Dwpt 6 hour altimeter (cm) sea level (mb) 1 hr 3 hr 6 hr
Max. Min.
04 16:55 S 6 16.09 Fair CLR 31.1 21 55% 34 75.92 0.0
04 16:35 Calm 16.09 Fair CLR 31.4 21.5 56% 35 75.92 0.0
04 16:15 Calm 16.09 Fair CLR 31.8 21.1 53% 35 75.95 0.0
04 15:55 Calm 16.09 Fair CLR 31.2 22 58% 35 75.97 0.0
04 15:35 SE 6 16.09 Fair CLR 30.5 21.8 60% 34 76 0.0
04 15:15 SE 6 16.09 Fair CLR 30.8 22.5 61% 35 76.02 0.0
04 14:55 Calm 16.09 Fair CLR 30.1 22.4 63% 34 76.02 0.0
04 14:35 Calm 16.09 Fair CLR 29.7 22.4 65% 33 76.07 0.0
04 14:15 Calm 16.09 Fair CLR 29.5 22.6 66% 33 76.07 0.0
04 13:55 S 7 16.09 Fair CLR 30 22.5 64% 34 76.1 0.0
04 13:35 Calm 16.09 Fair CLR 28.5 23 72% 32 76.1 0.0
04 13:15 SE 7 16.09 Fair CLR 27.7 23.5 78% 31 76.15 0.0
04 12:55 Calm 16.09 Thunderstorm in Vicinity CLR 27.9 23.4 31.4 24.3 77% 31 76.15 0.0
04 12:35 SW 11 16.09 Thunderstorm SCT036 SCT043 SCT050 27.5 22.8 76% 30 76.15 0.0
04 12:15 S 11 G 26 16.09 Thunderstorm SCT034 SCT043 BKN050 28.7 23.4 73% 33 76.15 0.0
04 11:55 SE 9 16.09 Thunderstorm CLR 31.1 22.7 61% 35 76.15 0.0
04 11:35 E 7 16.09 Fair CLR 30.8 23.5 65% 36 76.15 0.0
04 11:15 E 7 16.09 Fair CLR 30.7 24 67% 36 76.15 0.0
04 10:55 E 6 16.09 Fair CLR 28.8 24.1 76% 33 76.15 0.0
04 10:35 NE 9 16.09 Fair CLR 30.5 24 68% 36 76.15 0.0
04 10:15 E 7 16.09 Fair CLR 30.2 24.2 70% 36 76.12 0.0
04 09:55 E 9 16.09 Thunderstorm in Vicinity CLR 29.7 24.5 74% 35 76.12 0.0
04 09:35 E 6 16.09 Fair CLR 29.3 24.3 75% 34 76.15 0.0
04 09:15 E 6 4.83 Fair with Haze CLR 28.5 24.6 79% 33 76.12 0.0
04 08:55 NE 6 11.27 Partly Cloudy SCT022 28 24.7 82% 32 76.12 0.0
04 08:35 E 6 11.27 Fair CLR 27.5 24.8 85% 32 76.1 0.0
04 08:15 Calm 16.09 Fair CLR 26.6 24.6 89% 30 76.1 0.0
04 07:55 Calm 16.09 Fair CLR 25.6 24.4 93% 27 76.07 0.0
04 07:35 Calm 16.09 Fair CLR 25 24 94% 26 76.07 0.0
04 07:15 Calm 11.27 Fair CLR 24.7 23.9 95% 25 76.02 0.0
04 06:55 Calm 11.27 Fair CLR 24.5 23.5 25.1 23.6 94% 24 76.02 0.0
04 06:35 Calm 16.09 Fair CLR 24.6 23.7 95% 25 76.02 0.0
04 06:15 Calm 16.09 Fair CLR 24.5 23.6 95% 24 76.02 0.0
04 05:55 Calm 16.09 Partly Cloudy SCT021 SCT027 SCT034 24.6 23.8 95% 24 76.02 0.0
04 05:35 NE 7 16.09 Mostly Cloudy BKN021 BKN027 BKN034 24.6 23.9 96% 24 76.02 0.0
04 05:15 NE 7 16.09 Partly Cloudy SCT021 SCT027 24.3 23.5 95% 24 76.02 0.0
04 04:55 Calm 11.27 Partly Cloudy SCT021 24.1 23.3 95% 23 76.02 0.0
04 04:35 Calm 1.21 Fog/Mist VV005 23.7 23 96% 76 0.0
04 04:15 Calm 8.05 Fog/Mist SCT023 SCT029 24 23.2 95% 23 76 0.0
04 03:55 Calm 11.27 Partly Cloudy SCT023 24.2 23.5 96% 23 76 0.0
04 03:35 Calm 11.27 Fair CLR 24.1 23.3 95% 23 76 0.0
04 03:15 Calm 11.27 Fair CLR 24.5 23.6 95% 24 75.97 0.0
04 02:55 Calm 6.44 Fog/Mist CLR 24.3 23.4 95% 24 76 0.0
04 02:35 Calm 11.27 Fair CLR 24.5 23.6 95% 24 76 0.0
04 02:15 Calm 16.09 Fair CLR 24.7 23.7 94% 25 76 0.0
04 01:55 Calm 16.09 Fair CLR 24.6 23.6 94% 25 76 0.0
04 01:35 Calm 16.09 Fair CLR 24.8 23.7 94% 25 75.97 0.0
04 01:15 Calm 16.09 Fair CLR 25 24 94% 26 76 0.0
04 00:55 Calm 16.09 Fair CLR 24.8 23.7 29 24.8 94% 25 76 0.0
04 00:35 Calm 16.09 Fair CLR 25.2 24 93% 26 75.97 0.0
04 00:15 SE 6 16.09 Fair CLR 25.1 23.9 93% 26 75.97 0.0
03 23:55 Calm 16.09 Fair CLR 25 23.7 93% 26 75.97 0.0
03 23:35 Calm 16.09 Fair CLR 25 23.8 93% 26 76 0.0
03 23:15 Calm 16.09 Fair CLR 25 23.8 93% 26 76 0.0
03 22:55 SE 6 16.09 Fair CLR 25.1 23.7 92% 26 76.02 0.0
03 22:35 SE 6 16.09 Fair CLR 25.2 23.7 91% 26 76.02 0.0
03 22:15 SE 6 16.09 Fair CLR 25.4 23.6 90% 27 76.02 0.0
03 21:55 SE 6 16.09 Fair CLR 25.5 23.7 90% 27 76.02 0.0
03 21:35 Calm 16.09 Fair CLR 25.8 23.7 88% 27 76.02 0.0
03 21:15 Calm 16.09 Fair CLR 25.8 23.7 88% 27 76.02 0.0
03 20:55 Calm 16.09 Fair CLR 26 23.6 87% 28 76.02 0.0
03 20:35 S 6 16.09 Fair CLR 26 23.6 87% 28 75.97 0.0
03 20:15 Calm 16.09 Fair CLR 26.5 23.4 83% 29 75.95 0.0
03 19:55 E 6 16.09 Fair CLR 26.8 23.2 81% 29 75.95 0.0
03 19:35 SE 7 16.09 Fair CLR 27.5 22.9 76% 30 75.95 0.0
03 19:15 E 7 16.09 Fair CLR 28 23.5 77% 32 75.92 0.0
03 18:55 E 7 16.09 Fair CLR 29.1 23.8 73% 34 75.92 0.0
03 18:35 E 7 16.09 Fair CLR 29.5 23.3 69% 34 75.95 0.0
03 18:15 E 9 16.09 Fair CLR 30 23.3 67% 34 75.95 0.0
03 17:55 E 6 16.09 Fair CLR 29.6 22.4 65% 33 75.95 0.0
03 17:35 E 11 16.09 Partly Cloudy SCT032 SCT040 28.8 22.3 68% 32 75.97 0.0
03 17:15 E 19 G 31 16.09 Thunderstorm BKN038 31.2 24 66% 37 75.97 0.0
03 16:55 E 6 16.09 Partly Cloudy SCT038 31 22 59% 35 76 0.0
03 16:35 NE 6 16.09 Fair CLR 31.8 21.4 54% 35 76 0.0
03 16:15 NE 6 16.09 Fair CLR 31.2 22.2 59% 35 76.02 0.0
03 15:55 NE 9 16.09 Fair CLR 31 22.3 60% 35 76.02 0.0
03 15:35 NE 7 16.09 Fair CLR 31 22.1 59% 35 76.02 0.0
03 15:15 E 9 16.09 Fair CLR 31 22.5 61% 35 76.05 0.0
03 14:55 E 11 16.09 Partly Cloudy SCT075 SCT080 30.6 23 64% 35 76.05 0.0
03 14:35 Calm 16.09 Thunderstorm in Vicinity SCT075 29.8 23.8 70% 35 76.1 0.0
03 14:15 E 6 16.09 Partly Cloudy SCT075 29.1 24.9 78% 35 76.12 0.0
02 06:55 S 9 16.09 Thunderstorm in Vicinity SCT024 BKN038 BKN050 26.3 24.4 26.4 23.7 89% 29 76.05 0.0
02 06:35 S 6 16.09 Thunderstorm in Vicinity SCT026 SCT046 OVC110 26.3 24.2 88% 29 76.05 0.0
02 06:15 S 9 16.09 Mostly Cloudy SCT026 SCT045 BKN120 26.2 24.2 89% 28 76.05 0.0
02 05:55 S 7 16.09 Thunderstorm SCT120 26.2 24.1 88% 28 76.02 0.0
02 05:35 S 9 16.09 Thunderstorm in Vicinity SCT028 SCT046 SCT060 26 24.3 90% 28 76.02 0.0
02 05:15 S 13 16.09 Thunderstorm in Vicinity SCT020 SCT034 BKN090 25.8 24.3 91% 28 76.02 0.0
02 04:55 S 19 G 33 16.09 Thunderstorm Rain in Vicinity SCT020 SCT033 BKN100 26.2 24.2 89% 28 76.02 0.0
02 04:35 S 13 16.09 Thunderstorm in Vicinity SCT100 26 24.2 90% 28 76 0.0
02 04:15 SE 13 16.09 Thunderstorm in Vicinity SCT060 SCT070 SCT090 25.9 24.2 90% 28 76 0.0
02 03:55 SE 15 16.09 Thunderstorm Light Rain SCT029 SCT060 OVC090 25.7 24.1 91% 27 75.97 0.0
02 03:35 S 13 16.09 Thunderstorm Light Rain SCT027 BKN065 OVC090 25.7 24.2 91% 27 75.97 0.0
02 03:15 S 13 16.09 Thunderstorm Light Rain SCT030 BKN075 OVC090 25.6 24.2 92% 27 76 0.0
02 02:55 S 13 16.09 Thunderstorm Light Rain SCT024 SCT050 OVC065 25.5 24.1 92% 27 76.02 0.0
02 02:35 S 11 16.09 Thunderstorm Rain in Vicinity BKN024 BKN038 OVC085 25.4 24 92% 27 76.02 0.0
02 02:15 SE 15 16.09 Thunderstorm Light Rain in Vicinity SCT024 BKN065 OVC085 24.9 23.6 93% 25 76 0.0
02 01:55 SE 11 16.09 Thunderstorm SCT026 BKN046 OVC065 24.3 23.1 93% 24 76 0.0
02 01:35 SE 15 16.09 Thunderstorm Light Rain SCT015 BKN024 OVC045 24.1 23 94% 23 76 0.0
02 01:15 SE 13 G 26 0.80 Thunderstorm Heavy Rain BKN009 OVC017 23.9 22.7 93% 23 76.02 0.0
02 00:55 SE 33 G 41 8.05 Thunderstorm Light Rain and Breezy SCT009 BKN025 OVC042 24.2 22.9 25.3 23.7 92% 24 76.02 0.0
02 00:35 SE 15 16.09 Thunderstorm in Vicinity BKN025 BKN031 OVC048 24.9 23.2 90% 25 76.02 0.0
02 00:15 SE 11 16.09 Light Drizzle SCT027 OVC036 25 23 89% 26 75.97 0.0
01 23:55 S 11 16.09 Overcast BKN032 OVC038 25.1 23 88% 26 76 0.0
01 23:35 S 11 16.09 Overcast SCT032 SCT040 OVC048 25 23 89% 26 76 0.0
01 23:15 S 13 16.09 Overcast OVC044 25.2 22.8 87% 26 76 0.0
01 22:55 S 13 16.09 Overcast SCT024 SCT029 OVC044 25.1 22.9 88% 26 76 0.0
01 22:35 S 17 16.09 Light Rain OVC024 25 23.2 90% 26 75.97 0.0
01 22:15 S 22 G 33 16.09 Thunderstorm BKN028 OVC035 24.6 23.2 92% 25 75.95 0.0
01 21:55 S 20 G 28 16.09 Overcast SCT012 BKN030 OVC048 24.4 23.1 93% 24 75.92 0.0
01 21:35 S 19 G 28 16.09 Overcast SCT008 BKN012 OVC050 24.3 23.1 93% 24 75.9 0.0
01 21:15 S 24 G 33 16.09 Overcast BKN008 BKN012 OVC021 24.1 23.2 95% 23 75.82 0.0
01 20:55 S 24 G 44 11.27 Overcast SCT006 BKN013 OVC021 24 23.1 95% 23 75.77 0.0
01 20:35 S 30 G 44 8.05 Fog/Mist BKN008 OVC015 24 23 94% 23 75.72 0.0
01 20:15 S 31 G 46 16.09 Light Rain BKN010 OVC017 24 23.1 95% 23 75.67 0.0
01 19:55 SW 39 G 54 16.09 Overcast and Breezy OVC010 24 23.1 95% 23 75.44 0.0
01 19:35 SW 37 G 54 11.27 Light Drizzle and Breezy OVC010 24 23.1 95% 23 75.36 0.0
01 19:15 SW 48 G 63 4.83 Rain and Windy OVC008 23.8 23 95% 75.29 0.0
01 18:55 SW 57 G 78 1.21 Heavy Rain and Windy OVC006 23.8 23 27.8 23.3 95% 75.26 0.0
01 18:35 W 67 0.00 Windy NULL 0 0 0% 75.23 0.0
01 18:15 NW 69 G 93 0.40 Thunderstorm Heavy Rain and Windy OVC005 23.5 22.7 95% 75.16 0.0
01 17:55 NW 57 G 78 0.40 Heavy Rain and Windy OVC005 23.3 22.5 95% 75.34 0.0
01 17:35 N 43 G 72 4.02 Heavy Rain and Windy NULL 24.2 23.2 94% 24 75.41 0.0
Date Time (cdt) Wind (kph) Vis. (km) Weather Sky Cond. Air Dwpt Max. Min. Relative Humidity Wind Chill (°C) Heat Index (°C) altimeter (cm) sea level (mb) 1 hr 3 hr 6 hr
6 hour
Temperature (ºC) Pressure Precipitation (cm)